Elkhart, IN

9:18 AM EST on February 11, 2016 (GMT -0500)
East Jackson Blvd | | Change Station
CLOSE
Current Station
Personal Weather Station
Location: Elkhart, IN
Elevation: 753 ft
Nearby Weather Stations
Active Advisory: Winter Weather Advisory Active Notice: Record Report, Local Storm Report

Elev 753 ft 41.69 °N, 85.94 °W | Updated 19 seconds ago

Snow
Snow
16.5 °F
Feels Like 16 °F
N
0.7
Wind Variable Wind from NE
Gusts 2.2 mph

Today
High -- | Low -- °F
--% Chance of Precip.
Yesterday
High -- | Low -- °F
Precip. -- in
Pressure 30.23 in
Visibility 5.0 miles
Clouds Scattered Clouds 1100 ft
Scattered Clouds 1700 ft
Overcast 4800 ft
Windchill 16 °F
Dew Point 9 °F
Humidity 72%
Rainfall 0.00 in
Snow Depth Not available.
7:45 AM 6:11 PM
Waxing Crescent, 12% visible
METAR KEKM 111350Z 00000KT 5SM SN SCT011 SCT017 OVC048 M09/M12 A3023 RMK AO2
Pressure 30.23 in
Visibility 5.0 miles
Clouds Scattered Clouds 1100 ft
Scattered Clouds 1700 ft
Overcast 4800 ft
Windchill 16 °F
Dew Point 9 °F
Humidity 72%
Rainfall 0.00 in
Snow Depth Not available.
7:45 AM 6:11 PM
Waxing Crescent, 12% visible
METAR KEKM 111350Z 00000KT 5SM SN SCT011 SCT017 OVC048 M09/M12 A3023 RMK AO2

10-Day Weather Forecast

Almanac

Astronomy

Feb. 11, 2016 Rise Set
Actual Time
Civil Twilight
Nautical Twilight
Astronomical Twilight
Moon
Length of Visible Light
Length of Day
Tomorrow will be .
, % of the Moon is Illuminated

Today's Extremes

State Highs State Lows

Community

WunderPhotos

Upload Photos

1,892,048 photos uploaded!

WunderBlog® & News

Nearby

Air Quality

  Air Quality AQ Index Pollutant
Not available.

Snow Depth

Station Depth Elevation

Earthquake Activity

City Distance Mag. Time & Date
Minimum magnitude displayed is 2.5.

Coastal Water Temperatures

Place Temperature

Stations

Nearby Weather Stations

Station Location Temp. Windchill Dew Point Humidity Wind Precip. Elev Updated Type
                   

Watches & Warnings

Winter Weather Advisory
Issued: 2:28 AM CST Feb. 11, 2016 – National Weather Service

... Winter Weather Advisory remains in effect until 10 am EST
/9 am CST/ this morning...

Hazardous weather...

* lake effect snow showers will continue this morning.

* Additional snow accumulations of 1 to 2 inches will be
   possible where bands are most persistent.

Impacts...

* untreated roads will be snow covered... slick and hazardous. In
   addition... low visibilities in the lake effect snow bands will
   result in difficult and dangerous travel.

Precautionary/preparedness actions...

A Winter Weather Advisory for lake effect snow means that
visibilities will be limited due to bursts of heavy snow and
blowing snow. Use caution when traveling.